createdAt,value
2023-06-10T00:04:52.105Z,100.00
2023-06-10T00:14:55.213Z,100.00
2023-06-10T00:25:00.593Z,100.00
2023-06-10T00:35:03.866Z,100.00
2023-06-10T00:45:07.544Z,100.00
2023-06-10T00:55:10.865Z,100.00
2023-06-10T01:05:13.593Z,100.00
2023-06-10T01:15:19.435Z,100.00
2023-06-10T01:25:29.074Z,100.00
2023-06-10T01:35:32.230Z,100.00
2023-06-10T01:45:34.472Z,100.00
2023-06-10T01:55:37.062Z,100.00
2023-06-10T02:05:39.448Z,100.00
2023-06-10T02:15:41.987Z,100.00
2023-06-10T02:25:44.375Z,100.00
2023-06-10T02:35:47.198Z,100.00
2023-06-10T02:45:49.715Z,100.00
2023-06-10T02:55:52.251Z,100.00
2023-06-10T03:05:55.047Z,100.00
2023-06-10T03:15:58.291Z,100.00
2023-06-10T03:26:02.013Z,100.00
2023-06-10T03:36:04.756Z,100.00
2023-06-10T03:46:07.438Z,100.00
2023-06-10T03:56:10.165Z,100.00
2023-06-10T04:06:12.767Z,100.00
2023-06-10T04:16:15.287Z,100.00
2023-06-10T04:26:17.763Z,100.00
2023-06-10T04:36:20.085Z,100.00
2023-06-10T04:46:22.715Z,100.00
2023-06-10T04:56:25.454Z,100.00
2023-06-10T05:06:27.802Z,100.00
2023-06-10T05:16:31.092Z,100.00
2023-06-10T05:26:34.583Z,100.00
2023-06-10T05:36:37.051Z,100.00
2023-06-10T05:46:39.430Z,100.00
2023-06-10T05:56:42.559Z,100.00
2023-06-10T06:06:44.948Z,100.00
2023-06-10T06:16:47.875Z,100.00
2023-06-10T06:26:50.413Z,100.00
2023-06-10T06:36:53.032Z,100.00
2023-06-10T06:46:55.950Z,100.00
2023-06-10T06:56:58.777Z,100.00
2023-06-10T07:07:01.243Z,100.00
2023-06-10T07:17:04.486Z,100.00
2023-06-10T07:27:08.869Z,100.00
2023-06-10T07:37:11.787Z,100.00
2023-06-10T07:47:14.510Z,100.00
2023-06-10T07:57:17.999Z,98.32
2023-06-10T08:07:20.774Z,95.27
2023-06-10T08:17:23.722Z,88.04
2023-06-10T08:27:26.698Z,93.09
2023-06-10T08:37:29.280Z,89.24
2023-06-10T08:47:37.883Z,86.28
2023-06-10T08:57:42.203Z,79.33
2023-06-10T09:07:45.929Z,72.54
2023-06-10T09:17:49.137Z,71.96
2023-06-10T09:27:55.369Z,69.56
2023-06-10T09:37:59.308Z,60.49
2023-06-10T09:48:02.431Z,64.41
2023-06-10T09:58:05.508Z,63.42
2023-06-10T10:08:08.289Z,65.70
2023-06-10T10:18:13.089Z,65.61
2023-06-10T10:28:17.811Z,58.49
2023-06-10T10:38:22.073Z,57.52
2023-06-10T10:48:25.279Z,52.99
2023-06-10T10:58:31.625Z,50.40
2023-06-10T11:08:34.717Z,46.44
2023-06-10T11:18:40.696Z,49.23
2023-06-10T11:28:44.310Z,51.34
2023-06-10T11:38:47.421Z,50.91
2023-06-10T11:48:51.769Z,50.14
2023-06-10T11:58:59.335Z,45.25
2023-06-10T12:09:14.075Z,46.27
2023-06-10T12:19:25.670Z,51.09
2023-06-10T12:29:30.691Z,43.81
2023-06-10T12:39:34.470Z,41.69
2023-06-10T12:49:39.056Z,39.58
2023-06-10T12:59:43.077Z,39.61
2023-06-10T13:09:45.985Z,40.10
2023-06-10T13:19:50.560Z,43.23
2023-06-10T13:29:54.055Z,42.47
2023-06-10T13:39:57.994Z,40.53
2023-06-10T13:50:01.263Z,38.25
2023-06-10T14:00:05.243Z,35.82
2023-06-10T14:10:10.860Z,38.55
2023-06-10T14:20:14.605Z,34.62
2023-06-10T14:30:17.360Z,35.52
2023-06-10T14:40:20.231Z,34.75
2023-06-10T14:50:24.269Z,31.83
2023-06-10T15:00:27.251Z,36.45
2023-06-10T15:10:29.826Z,33.57
2023-06-10T15:20:32.549Z,37.25
2023-06-10T15:30:36.384Z,37.40
2023-06-10T15:40:39.684Z,38.73
2023-06-10T15:50:42.942Z,38.29
2023-06-10T16:00:46.935Z,39.57
2023-06-10T16:10:49.947Z,40.10
2023-06-10T16:20:54.509Z,39.78
2023-06-10T16:30:57.397Z,42.12
2023-06-10T16:41:02.264Z,38.27
2023-06-10T16:51:08.141Z,37.77
2023-06-10T17:01:11.685Z,42.02
2023-06-10T17:11:14.522Z,42.66
2023-06-10T17:21:18.171Z,43.02
2023-06-10T17:31:21.246Z,45.17
2023-06-10T17:41:24.920Z,46.49
2023-06-10T17:51:29.199Z,44.90
2023-06-10T18:01:33.292Z,44.69
2023-06-10T18:11:36.634Z,45.65
2023-06-10T18:21:42.743Z,46.83
2023-06-10T18:31:46.509Z,47.33
2023-06-10T18:41:49.869Z,53.58
2023-06-10T18:51:54.121Z,59.72
2023-06-10T19:01:59.949Z,73.22
2023-06-10T19:12:04.977Z,79.54
2023-06-10T19:22:10.438Z,84.41
2023-06-10T19:32:14.368Z,89.00
2023-06-10T19:42:17.764Z,96.60
2023-06-10T19:52:22.081Z,100.00
2023-06-10T20:02:25.114Z,100.00
2023-06-10T20:12:28.772Z,100.00
2023-06-10T20:22:31.442Z,100.00
2023-06-10T20:32:34.470Z,100.00
2023-06-10T20:42:37.853Z,100.00
2023-06-10T20:52:41.791Z,100.00
2023-06-10T21:02:45.250Z,100.00
2023-06-10T21:12:49.717Z,100.00
2023-06-10T21:22:52.159Z,100.00
2023-06-10T21:32:55.266Z,100.00
2023-06-10T21:42:57.574Z,100.00
2023-06-10T21:53:01.480Z,100.00
2023-06-10T22:03:04.465Z,100.00
2023-06-10T22:13:10.457Z,100.00
2023-06-10T22:23:19.001Z,100.00
2023-06-10T22:33:21.595Z,100.00
2023-06-10T22:43:24.242Z,100.00
2023-06-10T22:53:27.398Z,100.00
2023-06-10T23:03:29.830Z,100.00
2023-06-10T23:13:32.369Z,100.00
2023-06-10T23:23:35.895Z,100.00
2023-06-10T23:33:40.310Z,100.00
2023-06-10T23:43:42.895Z,100.00
2023-06-10T23:53:45.162Z,100.00
